الصفحة الرئيسية
METAR-TAF:

METAR-TAF

مطار :

بليثي, كاليفورنيا, الولايات المتحدة

دائرة عرض: 33-37-09N, خط طول: 114-43-01W, ارتفاع: 121 متر

مراقبة الطقس الحالي

تاريخ ووقت الإصدار 44 دقيقة قبل الساعة 08:52UTC
ريح 5 عقدة من الجنوب
درجة الحرارة 26°درجة مئوية
الرطوبة 13%
ضغط 1013 hPa
الرؤية: 16.1 كم
سماء صافية

METAR: KBLH 290852Z AUTO 17005KT 10SM CLR 26/M05 A2991 RMK AO2 SLP121 T02611050 53005

زمن: 02:36 (09:36 UTC)

توقعات

تاريخ ووقت الإصدار 4ساعات و 16 دقيقة قبل الساعة 05:20UTC
التوقعات صالحة من29 الساعة 06 UTC إلى 30 الساعة 06 UTC
ريح 9 عقدة من الشمال
الرؤية: 10 كم
سماء صافية
من 29 الساعة 1800 UTC
ريح 6 عقدة من الشمال الشرقي
الرؤية: 10 كم
سماء صافية
من 30 الساعة 0400 UTC
ريح 4 عقدة من الشمال/الشمال الغربي
الرؤية: 10 كم
سماء صافية

TAF: KBLH 290520Z 2906/3006 35009KT P6SM SKC FM291800 05006KT P6SM SKC FM300400 34004KT P6SM SKC

أرصاد الطقس والتوقعات من أكثر من 4000 مطار (تقارير الطقس للمطار METAR والتنبؤ بالطقس بالمطارTAF).

المحطات المتاحة هي النقط الصفراء والحمراء على الخريطة.

حرك المؤشر فوق النقطة لمعرفة اسم المحطة.

ثم انقر لمعرفة أرصاد وتوقعات الطقس.

لتغيير الخارطة: اضغط على الأزرار الخضراء مع رمز الصليب الأسود للتكبير. على الزر الأخضر مع شرطة للتصغير، أو على الأسهم الخضراء للخرائط المجاورة.


METAR-TAF: